createdAt,value
2022-09-23T00:01:07.629Z,31.83
2022-09-23T00:03:09.519Z,31.80
2022-09-23T00:05:11.158Z,33.78
2022-09-23T00:07:12.686Z,33.35
2022-09-23T00:09:14.099Z,33.95
2022-09-23T00:11:19.764Z,33.40
2022-09-23T00:13:21.509Z,33.67
2022-09-23T00:15:25.213Z,34.55
2022-09-23T00:17:27.326Z,33.55
2022-09-23T00:19:29.577Z,33.28
2022-09-23T00:21:31.024Z,34.83
2022-09-23T00:23:32.707Z,34.17
2022-09-23T00:25:34.097Z,34.92
2022-09-23T00:27:35.813Z,34.90
2022-09-23T00:29:37.251Z,39.28
2022-09-23T00:31:38.653Z,35.78
2022-09-23T00:33:40.810Z,37.72
2022-09-23T00:35:42.235Z,39.90
2022-09-23T00:37:43.648Z,38.13
2022-09-23T00:39:45.846Z,37.55
2022-09-23T00:41:47.290Z,36.35
2022-09-23T00:43:50.792Z,37.10
2022-09-23T00:45:52.244Z,38.70
2022-09-23T00:47:56.597Z,38.13
2022-09-23T00:50:08.944Z,38.75
2022-09-23T00:52:12.054Z,38.92
2022-09-23T00:54:13.534Z,39.17
2022-09-23T00:56:15.640Z,41.08
2022-09-23T00:58:20.129Z,62.03
2022-09-23T01:00:22.323Z,68.65
2022-09-23T01:02:23.890Z,54.13
2022-09-23T01:04:26.256Z,46.35
2022-09-23T01:06:29.372Z,44.22
2022-09-23T01:08:31.282Z,40.30
2022-09-23T01:10:58.561Z,40.47
2022-09-23T01:13:03.094Z,39.13
2022-09-23T01:15:04.585Z,43.65
2022-09-23T01:17:06.055Z,47.08
2022-09-23T01:19:21.475Z,41.05
2022-09-23T01:21:22.829Z,44.42
2022-09-23T01:23:42.949Z,43.67
2022-09-23T01:25:51.151Z,39.75
2022-09-23T01:27:55.364Z,40.13
2022-09-23T01:30:06.064Z,43.03
2022-09-23T01:32:13.584Z,40.05
2022-09-23T01:34:20.799Z,40.35
2022-09-23T01:36:25.428Z,39.60
2022-09-23T01:38:36.062Z,45.95
2022-09-23T01:40:37.495Z,49.50
2022-09-23T01:42:42.839Z,41.90
2022-09-23T01:44:51.379Z,40.75
2022-09-23T01:46:58.758Z,42.78
2022-09-23T01:49:04.210Z,39.58
2022-09-23T01:51:20.898Z,43.20
2022-09-23T01:53:25.392Z,45.10
2022-09-23T01:55:38.486Z,43.35
2022-09-23T01:57:53.430Z,39.08
2022-09-23T02:00:10.333Z,41.08
2022-09-23T02:02:15.408Z,41.17
2022-09-23T02:04:22.372Z,41.75
2022-09-23T02:06:26.548Z,43.90
2022-09-23T02:08:30.840Z,44.20
2022-09-23T02:10:42.150Z,44.10
2022-09-23T02:12:46.960Z,45.53
2022-09-23T02:14:59.604Z,43.88
2022-09-23T02:17:03.311Z,45.13
2022-09-23T02:19:11.599Z,54.40
2022-09-23T02:21:14.704Z,45.53
2022-09-23T02:23:42.535Z,46.65
2022-09-23T02:25:47.023Z,44.10
2022-09-23T02:28:20.987Z,45.55
2022-09-23T02:30:28.012Z,44.90
2022-09-23T02:32:48.288Z,45.80
2022-09-23T02:34:52.752Z,47.85
2022-09-23T02:36:57.304Z,47.50
2022-09-23T02:39:05.193Z,54.83
2022-09-23T02:41:29.713Z,52.08
2022-09-23T02:43:35.568Z,49.13
2022-09-23T02:45:39.218Z,49.22
2022-09-23T02:47:42.201Z,49.63
2022-09-23T02:49:43.590Z,50.63
2022-09-23T02:51:45.487Z,51.00
2022-09-23T02:53:47.726Z,51.67
2022-09-23T02:55:50.174Z,65.65
2022-09-23T02:57:53.489Z,58.63
2022-09-23T02:59:54.928Z,61.33
2022-09-23T03:02:14.448Z,55.67
2022-09-23T03:04:35.556Z,53.05
2022-09-23T03:06:47.225Z,55.25
2022-09-23T03:08:53.466Z,53.50
2022-09-23T03:11:05.813Z,53.40
2022-09-23T03:13:15.327Z,52.70
2022-09-23T03:15:26.939Z,56.63
2022-09-23T03:17:38.250Z,67.05
2022-09-23T03:20:11.649Z,62.67
2022-09-23T03:22:18.537Z,62.55
2022-09-23T03:24:21.742Z,65.10
2022-09-23T03:26:31.483Z,62.28
2022-09-23T03:30:38.061Z,61.55
2022-09-23T03:32:42.098Z,61.25
2022-09-23T03:34:44.559Z,63.88
2022-09-23T03:36:53.414Z,70.85
2022-09-23T03:38:59.217Z,65.27
2022-09-23T03:41:02.971Z,67.25
2022-09-23T03:43:05.205Z,65.68
2022-09-23T03:45:09.607Z,62.53
2022-09-23T03:47:12.794Z,61.05
2022-09-23T03:49:15.776Z,66.95
2022-09-23T03:51:26.275Z,71.93
2022-09-23T03:53:27.670Z,70.25
2022-09-23T03:55:29.135Z,65.35
2022-09-23T03:57:31.691Z,68.43
2022-09-23T03:59:33.582Z,67.57
2022-09-23T04:01:35.024Z,72.22
2022-09-23T04:03:36.454Z,65.47
2022-09-23T04:05:37.948Z,78.10
2022-09-23T04:07:39.464Z,71.55
2022-09-23T04:09:41.306Z,63.20
2022-09-23T04:11:42.899Z,61.55
2022-09-23T04:13:44.370Z,66.78
2022-09-23T04:15:45.807Z,67.60
2022-09-23T04:17:47.221Z,62.15
2022-09-23T04:19:48.649Z,65.82
2022-09-23T04:21:50.157Z,60.88
2022-09-23T04:23:51.709Z,61.00
2022-09-23T04:25:53.606Z,62.75
2022-09-23T04:27:55.031Z,66.93
2022-09-23T04:29:56.499Z,66.78
2022-09-23T04:31:58.214Z,62.63
2022-09-23T04:33:59.943Z,68.65
2022-09-23T04:36:01.615Z,62.08
2022-09-23T04:38:03.048Z,65.93
2022-09-23T04:40:04.791Z,70.20
2022-09-23T04:42:06.353Z,62.92
2022-09-23T04:44:07.836Z,67.68
2022-09-23T04:46:11.117Z,68.28
2022-09-23T04:48:13.994Z,61.20
2022-09-23T04:50:15.674Z,60.20
2022-09-23T04:52:17.107Z,62.53
2022-09-23T04:54:19.070Z,74.85
2022-09-23T04:56:22.337Z,69.28
2022-09-23T04:58:24.298Z,59.28
2022-09-23T05:00:28.828Z,58.25
2022-09-23T05:02:32.166Z,57.55
2022-09-23T05:04:33.678Z,57.30
2022-09-23T05:06:35.596Z,56.50
2022-09-23T05:08:37.102Z,58.90
2022-09-23T05:10:38.558Z,71.75
2022-09-23T05:12:39.988Z,81.05
2022-09-23T05:14:41.502Z,100.65
2022-09-23T05:16:43.063Z,73.82
2022-09-23T05:18:45.394Z,67.05
2022-09-23T05:20:52.471Z,86.70
2022-09-23T05:22:55.742Z,130.65
2022-09-23T05:24:59.903Z,133.90
2022-09-23T05:27:01.643Z,97.82
2022-09-23T05:29:03.188Z,98.80
2022-09-23T05:31:33.701Z,79.90
2022-09-23T05:33:35.893Z,125.43
2022-09-23T05:35:37.332Z,129.52
2022-09-23T05:37:39.004Z,79.18
2022-09-23T05:39:40.484Z,67.78
2022-09-23T05:41:43.696Z,98.18
2022-09-23T05:43:45.484Z,82.70
2022-09-23T05:45:46.913Z,134.32
2022-09-23T05:47:48.323Z,55.17
2022-09-23T05:49:59.697Z,59.75
2022-09-23T05:52:02.198Z,51.05
2022-09-23T05:54:05.493Z,61.67
2022-09-23T05:56:07.760Z,66.13
2022-09-23T05:58:09.506Z,201.50
2022-09-23T06:00:11.152Z,88.47
2022-09-23T06:02:12.623Z,51.95
2022-09-23T06:04:14.470Z,50.15
2022-09-23T06:06:18.117Z,52.53
2022-09-23T06:08:19.890Z,52.60
2022-09-23T06:10:21.331Z,48.00
2022-09-23T06:12:23.295Z,51.85
2022-09-23T06:14:24.910Z,51.22
2022-09-23T06:16:26.768Z,56.33
2022-09-23T06:18:28.236Z,62.97
2022-09-23T06:20:29.937Z,84.60
2022-09-23T06:22:31.618Z,77.53
2022-09-23T06:24:33.550Z,66.68
2022-09-23T06:26:37.681Z,47.17
2022-09-23T06:28:40.466Z,48.45
2022-09-23T06:30:42.611Z,60.42
2022-09-23T06:32:47.847Z,67.20
2022-09-23T06:34:52.101Z,75.50
2022-09-23T06:36:55.642Z,44.47
2022-09-23T06:38:57.071Z,41.33
2022-09-23T06:40:58.698Z,40.42
2022-09-23T06:43:01.230Z,59.22
2022-09-23T06:45:02.710Z,47.35
2022-09-23T06:47:04.235Z,43.83
2022-09-23T06:49:05.804Z,46.22
2022-09-23T06:51:12.323Z,30.10
2022-09-23T06:53:14.199Z,30.55
2022-09-23T06:55:15.681Z,35.90
2022-09-23T06:57:17.332Z,33.35
2022-09-23T06:59:18.919Z,33.25
2022-09-23T07:01:20.543Z,36.60
2022-09-23T07:03:22.348Z,32.58
2022-09-23T07:05:23.843Z,27.58
2022-09-23T07:07:26.665Z,29.83
2022-09-23T07:09:28.178Z,28.05
2022-09-23T07:11:30.031Z,34.38
2022-09-23T07:13:34.966Z,32.60
2022-09-23T07:15:36.589Z,28.05
2022-09-23T07:17:41.239Z,33.17
2022-09-23T07:53:50.202Z,16.25
2022-09-23T07:55:56.088Z,19.42
2022-09-23T07:57:57.825Z,21.02
2022-09-23T08:00:01.107Z,16.25
2022-09-23T08:02:02.847Z,20.90
2022-09-23T08:04:08.317Z,18.63
2022-09-23T08:06:12.353Z,16.55
2022-09-23T08:08:21.482Z,17.10
2022-09-23T08:10:25.988Z,15.00
2022-09-23T08:12:29.399Z,14.40
2022-09-23T08:14:31.615Z,15.23
2022-09-23T08:16:33.199Z,13.02
2022-09-23T08:18:34.921Z,16.75
2022-09-23T08:20:47.271Z,13.90
2022-09-23T08:22:57.791Z,15.20
2022-09-23T08:27:01.239Z,13.93
2022-09-23T08:29:02.845Z,16.05
2022-09-23T08:31:04.978Z,15.85
2022-09-23T08:33:06.613Z,14.15
2022-09-23T08:35:09.465Z,13.52
2022-09-23T08:37:11.341Z,11.40
2022-09-23T08:39:15.460Z,10.60
2022-09-23T08:41:42.244Z,11.02
2022-09-23T08:43:50.754Z,9.80
2022-09-23T08:45:53.384Z,9.20
2022-09-23T08:48:10.802Z,10.10
2022-09-23T08:50:23.062Z,9.55
2022-09-23T08:52:39.511Z,9.75
2022-09-23T08:54:41.695Z,9.75
2022-09-23T08:56:51.377Z,9.05
2022-09-23T08:59:15.213Z,7.10
2022-09-23T09:01:16.864Z,6.30
2022-09-23T09:03:36.604Z,6.88
2022-09-23T09:05:53.974Z,5.95
2022-09-23T09:08:01.448Z,5.95
2022-09-23T09:10:20.189Z,5.78
2022-09-23T09:12:41.021Z,5.90
2022-09-23T09:14:59.383Z,5.82
2022-09-23T09:17:04.775Z,5.57
2022-09-23T09:19:17.224Z,4.80
2022-09-23T09:21:26.154Z,5.32
2022-09-23T09:23:40.708Z,4.97
2022-09-23T09:25:42.253Z,5.53
2022-09-23T09:27:43.841Z,5.13
2022-09-23T09:29:49.839Z,5.28
2022-09-23T09:31:51.853Z,4.63
2022-09-23T09:33:58.080Z,4.55
2022-09-23T09:36:19.271Z,3.80
2022-09-23T09:38:22.493Z,3.10
2022-09-23T09:40:25.713Z,2.95
2022-09-23T09:42:35.787Z,3.03
2022-09-23T09:44:42.749Z,2.90
2022-09-23T09:47:15.233Z,2.90
2022-09-23T09:49:31.771Z,3.45
2022-09-23T09:51:33.353Z,3.10
2022-09-23T09:53:35.914Z,2.45
2022-09-23T09:55:37.620Z,1.83
2022-09-23T09:58:04.154Z,2.00
2022-09-23T10:00:18.908Z,2.00
2022-09-23T10:02:23.340Z,1.80
2022-09-23T10:04:34.129Z,1.80
2022-09-23T10:06:36.300Z,2.20
2022-09-23T10:08:38.722Z,1.83
2022-09-23T10:10:54.832Z,3.22
2022-09-23T10:12:56.395Z,1.80
2022-09-23T10:14:58.109Z,1.98
2022-09-23T10:17:05.657Z,1.00
2022-09-23T10:19:25.330Z,1.65
2022-09-23T10:21:34.634Z,1.40
2022-09-23T10:23:41.146Z,1.60
2022-09-23T10:25:43.494Z,2.22
2022-09-23T10:27:45.664Z,1.65
2022-09-23T10:29:50.945Z,1.60
2022-09-23T10:32:19.005Z,1.58
2022-09-23T10:34:27.642Z,1.30
2022-09-23T10:36:32.019Z,1.30
2022-09-23T10:38:33.585Z,1.10
2022-09-23T10:44:08.961Z,1.30
2022-09-23T10:46:38.542Z,1.63
2022-09-23T10:48:59.291Z,1.55
2022-09-23T10:51:00.931Z,0.90
2022-09-23T10:53:08.149Z,1.00
2022-09-23T10:55:32.030Z,0.90
2022-09-23T10:57:45.930Z,1.20
2022-09-23T11:00:22.369Z,1.05
2022-09-23T11:02:36.390Z,1.00
2022-09-23T11:05:10.267Z,1.00
2022-09-23T11:07:18.310Z,1.20
2022-09-23T11:09:40.571Z,1.50
2022-09-23T11:12:24.203Z,1.10
2022-09-23T11:14:45.538Z,1.20
2022-09-23T11:16:52.925Z,1.17
2022-09-23T11:19:17.350Z,1.10
2022-09-23T11:21:50.571Z,1.40
2022-09-23T11:24:12.408Z,1.00
2022-09-23T11:26:32.218Z,1.00
2022-09-23T11:29:05.431Z,1.00
2022-09-23T11:31:33.124Z,1.35
2022-09-23T11:33:47.700Z,1.00
2022-09-23T11:35:51.324Z,1.20
2022-09-23T11:38:18.808Z,1.08
2022-09-23T11:40:24.535Z,1.30
2022-09-23T11:42:33.968Z,1.30
2022-09-23T11:44:41.820Z,1.25
2022-09-23T11:46:47.738Z,1.30
2022-09-23T11:48:49.397Z,1.13
2022-09-23T11:50:59.909Z,1.20
2022-09-23T11:53:07.792Z,1.30
2022-09-23T11:55:23.469Z,1.30
2022-09-23T11:57:47.595Z,1.02
2022-09-23T11:59:53.879Z,1.20
2022-09-23T12:02:19.547Z,1.42
2022-09-23T12:04:32.230Z,1.20
2022-09-23T12:06:38.603Z,1.30
2022-09-23T12:08:40.248Z,1.20
2022-09-23T12:11:06.588Z,1.50
2022-09-23T12:13:18.039Z,1.23
2022-09-23T12:15:25.679Z,14.82
2022-09-23T12:17:51.600Z,1.40
2022-09-23T12:19:56.337Z,1.45
2022-09-23T12:22:25.672Z,1.17
2022-09-23T12:24:45.956Z,1.55
2022-09-23T12:26:51.576Z,1.10
2022-09-23T12:28:54.995Z,1.40
2022-09-23T12:30:59.186Z,1.30
2022-09-23T12:33:09.091Z,1.65
2022-09-23T12:37:38.085Z,1.30
2022-09-23T12:39:40.336Z,1.17
2022-09-23T12:41:57.072Z,1.13
2022-09-23T12:44:08.626Z,1.35
2022-09-23T12:46:17.406Z,1.40
2022-09-23T12:48:19.008Z,1.00
2022-09-23T12:51:08.836Z,1.10
2022-09-23T12:53:35.221Z,1.20
2022-09-23T12:55:39.643Z,1.15
2022-09-23T12:57:42.396Z,1.40
2022-09-23T12:59:56.827Z,1.52
2022-09-23T13:02:19.268Z,1.50
2022-09-23T13:04:47.745Z,1.77
2022-09-23T13:06:58.954Z,1.42
2022-09-23T13:09:05.229Z,1.60
2022-09-23T13:11:27.867Z,1.45
2022-09-23T13:13:32.533Z,1.10
2022-09-23T13:15:36.067Z,1.20
2022-09-23T13:17:39.066Z,0.85
2022-09-23T13:19:40.984Z,1.17
2022-09-23T13:21:42.530Z,1.20
2022-09-23T13:24:12.800Z,1.02
2022-09-23T13:26:15.205Z,1.13
2022-09-23T13:28:44.631Z,0.90
2022-09-23T13:30:52.157Z,1.08
2022-09-23T13:33:01.518Z,1.15
2022-09-23T13:35:38.556Z,1.55
2022-09-23T13:37:47.612Z,1.10
2022-09-23T13:39:49.302Z,1.30
2022-09-23T13:41:53.703Z,1.33
2022-09-23T13:43:58.742Z,2.75
2022-09-23T13:46:01.086Z,1.35
2022-09-23T13:48:07.416Z,1.10
2022-09-23T13:50:20.394Z,1.10
2022-09-23T13:52:27.422Z,1.30
2022-09-23T13:54:32.097Z,1.08
2022-09-23T13:56:33.920Z,1.40
2022-09-23T13:58:38.882Z,1.10
2022-09-23T14:00:41.055Z,1.23
2022-09-23T14:02:43.391Z,1.52
2022-09-23T14:04:45.063Z,1.38
2022-09-23T14:06:46.666Z,1.00
2022-09-23T14:08:49.940Z,1.20
2022-09-23T14:10:52.110Z,1.20
2022-09-23T14:12:54.578Z,1.13
2022-09-23T14:14:57.251Z,1.27
2022-09-23T14:16:59.055Z,1.10
2022-09-23T14:19:00.773Z,1.27
2022-09-23T14:21:09.112Z,1.40
2022-09-23T14:23:12.917Z,1.60
2022-09-23T14:25:18.223Z,1.30
2022-09-23T14:27:30.908Z,1.20
2022-09-23T14:29:37.747Z,1.90
2022-09-23T14:31:39.921Z,1.70
2022-09-23T14:33:42.446Z,1.35
2022-09-23T14:35:49.822Z,1.40
2022-09-23T14:38:15.031Z,1.70
2022-09-23T14:40:29.819Z,1.60
2022-09-23T14:42:39.079Z,1.40
2022-09-23T14:44:41.571Z,1.45
2022-09-23T14:46:56.745Z,1.63
2022-09-23T14:49:06.166Z,1.40
2022-09-23T14:51:10.928Z,1.30
2022-09-23T14:53:19.461Z,1.70
2022-09-23T14:55:21.111Z,2.10
2022-09-23T14:57:23.325Z,1.60
2022-09-23T14:59:36.622Z,1.30
2022-09-23T15:01:39.645Z,1.55
2022-09-23T15:03:47.689Z,1.55
2022-09-23T15:05:51.090Z,1.52
2022-09-23T15:07:55.636Z,1.40
2022-09-23T15:09:57.222Z,3.15
2022-09-23T15:12:20.821Z,1.48
2022-09-23T15:14:37.365Z,2.08
2022-09-23T15:16:40.387Z,1.33
2022-09-23T15:18:44.476Z,1.90
2022-09-23T15:20:54.548Z,1.70
2022-09-23T15:22:56.790Z,1.95
2022-09-23T15:25:21.711Z,2.20
2022-09-23T15:27:33.271Z,1.70
2022-09-23T15:29:35.395Z,3.88
2022-09-23T15:31:37.732Z,4.20
2022-09-23T15:33:39.507Z,1.60
2022-09-23T15:35:46.855Z,1.50
2022-09-23T15:37:50.140Z,1.80
2022-09-23T15:39:57.783Z,3.28
2022-09-23T15:41:59.705Z,2.25
2022-09-23T15:44:28.665Z,1.70
2022-09-23T15:46:32.552Z,2.40
2022-09-23T15:48:42.528Z,2.03
2022-09-23T15:52:47.440Z,2.35
2022-09-23T15:54:49.016Z,2.10
2022-09-23T15:56:51.180Z,2.35
2022-09-23T15:58:52.935Z,1.92
2022-09-23T16:00:56.929Z,2.10
2022-09-23T16:02:58.753Z,2.33
2022-09-23T16:05:05.846Z,2.33
2022-09-23T16:07:12.867Z,1.95
2022-09-23T16:09:17.644Z,2.22
2022-09-23T16:11:21.972Z,2.35
2022-09-23T16:13:23.570Z,2.95
2022-09-23T16:15:25.265Z,2.78
2022-09-23T16:17:28.525Z,4.65
2022-09-23T16:19:35.468Z,34.35
2022-09-23T16:21:37.251Z,31.08
2022-09-23T16:23:43.464Z,21.20
2022-09-23T16:25:45.041Z,13.02
2022-09-23T16:27:46.613Z,7.85
2022-09-23T16:29:48.201Z,9.90
2022-09-23T16:31:49.902Z,10.00
2022-09-23T16:33:52.720Z,11.13
2022-09-23T16:35:55.005Z,8.32
2022-09-23T16:37:57.224Z,6.43
2022-09-23T16:39:59.465Z,6.63
2022-09-23T16:42:02.241Z,5.47
2022-09-23T16:44:06.295Z,6.28
2022-09-23T16:46:12.646Z,7.75
2022-09-23T16:48:14.533Z,52.20
2022-09-23T16:50:18.615Z,25.98
2022-09-23T16:52:20.195Z,57.83
2022-09-23T16:54:23.887Z,75.10
2022-09-23T16:56:28.805Z,41.22
2022-09-23T16:58:30.826Z,56.88
2022-09-23T17:00:51.137Z,41.60
2022-09-23T17:03:11.147Z,37.45
2022-09-23T17:05:14.177Z,27.92
2022-09-23T17:07:15.800Z,27.80
2022-09-23T17:09:19.943Z,28.73
2022-09-23T17:11:22.108Z,22.45
2022-09-23T17:13:25.582Z,17.23
2022-09-23T17:15:27.222Z,15.63
2022-09-23T17:17:28.891Z,17.45
2022-09-23T17:19:30.590Z,57.03
2022-09-23T17:21:32.226Z,38.88
2022-09-23T17:23:35.656Z,30.95
2022-09-23T17:25:37.229Z,30.83
2022-09-23T17:27:38.834Z,21.23
2022-09-23T17:29:40.484Z,18.08
2022-09-23T17:31:42.254Z,16.50
2022-09-23T17:33:44.170Z,18.25
2022-09-23T17:35:45.843Z,28.38
2022-09-23T17:37:47.716Z,31.83
2022-09-23T17:39:49.281Z,42.15
2022-09-23T17:41:51.404Z,43.38
2022-09-23T17:44:00.868Z,42.95
2022-09-23T17:46:08.055Z,50.65
2022-09-23T17:48:09.696Z,65.93
2022-09-23T17:50:11.252Z,85.05
2022-09-23T17:52:12.943Z,55.15
2022-09-23T17:54:15.205Z,41.53
2022-09-23T17:56:25.089Z,26.15
2022-09-23T18:00:32.750Z,39.45
2022-09-23T18:02:34.393Z,39.33
2022-09-23T18:04:36.089Z,34.78
2022-09-23T18:06:38.093Z,30.55
2022-09-23T18:08:40.830Z,26.38
2022-09-23T18:10:42.551Z,25.00
2022-09-23T18:12:44.212Z,24.30
2022-09-23T18:14:47.902Z,75.45
2022-09-23T18:16:53.879Z,66.38
2022-09-23T18:18:57.696Z,69.15
2022-09-23T18:21:05.466Z,84.95
2022-09-23T18:23:07.052Z,59.05
2022-09-23T18:25:28.626Z,39.80
2022-09-23T18:27:34.390Z,36.90
2022-09-23T18:29:36.046Z,51.60
2022-09-23T18:31:38.695Z,37.35
2022-09-23T18:33:40.914Z,40.35
2022-09-23T18:35:43.027Z,53.53
2022-09-23T18:37:44.794Z,28.00
2022-09-23T18:39:48.691Z,21.85
2022-09-23T18:41:50.478Z,21.70
2022-09-23T18:43:52.377Z,20.13
2022-09-23T18:45:58.497Z,19.20
2022-09-23T18:48:18.895Z,28.65
2022-09-23T18:50:39.035Z,27.40
2022-09-23T18:52:40.720Z,28.30
2022-09-23T18:54:44.162Z,21.88
2022-09-23T18:56:46.620Z,22.35
2022-09-23T18:58:49.600Z,23.67
2022-09-23T19:00:51.546Z,25.15
2022-09-23T19:02:53.603Z,26.08
2022-09-23T19:04:55.212Z,26.30
2022-09-23T19:06:58.102Z,24.23
2022-09-23T19:08:59.844Z,37.42
2022-09-23T19:11:03.375Z,40.25
2022-09-23T19:13:10.509Z,80.15
2022-09-23T19:15:14.168Z,47.78
2022-09-23T19:17:16.384Z,38.22
2022-09-23T19:19:18.168Z,72.15
2022-09-23T19:21:21.993Z,47.85
2022-09-23T19:23:24.256Z,59.85
2022-09-23T19:25:26.117Z,99.03
2022-09-23T19:27:29.352Z,61.13
2022-09-23T19:29:31.155Z,49.05
2022-09-23T19:31:34.925Z,321.55
2022-09-23T19:33:38.140Z,50.35
2022-09-23T19:35:51.422Z,56.45
2022-09-23T19:37:57.899Z,35.00
2022-09-23T19:39:59.629Z,29.15
2022-09-23T19:42:02.790Z,20.10
2022-09-23T19:44:07.879Z,24.13
2022-09-23T19:46:11.296Z,55.05
2022-09-23T19:48:14.359Z,86.22
2022-09-23T19:50:16.124Z,96.10
2022-09-23T19:52:17.911Z,117.82
2022-09-23T19:54:20.937Z,154.13
2022-09-23T19:56:23.032Z,77.80
2022-09-23T19:58:25.775Z,41.65
2022-09-23T20:00:27.714Z,26.30
2022-09-23T20:02:29.487Z,28.40
2022-09-23T20:04:31.183Z,65.07
2022-09-23T20:06:35.222Z,70.30
2022-09-23T20:08:37.719Z,105.50
2022-09-23T20:10:39.915Z,58.20
2022-09-23T20:12:44.106Z,37.90
2022-09-23T20:14:46.186Z,20.65
2022-09-23T20:16:48.096Z,29.77
2022-09-23T20:18:52.522Z,63.80
2022-09-23T20:20:55.007Z,71.22
2022-09-23T20:22:56.795Z,58.28
2022-09-23T20:24:59.318Z,40.35
2022-09-23T20:27:09.830Z,26.13
2022-09-23T20:29:11.511Z,21.30
2022-09-23T20:31:14.060Z,28.05
2022-09-23T20:33:15.702Z,23.45
2022-09-23T20:35:17.435Z,25.95
2022-09-23T20:37:20.423Z,29.33
2022-09-23T20:39:22.108Z,23.77
2022-09-23T20:41:23.686Z,21.42
2022-09-23T20:43:26.934Z,62.50
2022-09-23T20:45:28.495Z,53.67
2022-09-23T20:47:30.121Z,152.88
2022-09-23T20:49:34.135Z,80.35
2022-09-23T20:51:36.702Z,85.03
2022-09-23T20:53:38.536Z,61.78
2022-09-23T20:55:53.397Z,62.88
2022-09-23T20:57:55.370Z,47.78
2022-09-23T20:59:57.134Z,27.73
2022-09-23T21:01:59.015Z,28.10
2022-09-23T21:04:03.937Z,22.67
2022-09-23T21:06:06.917Z,24.85
2022-09-23T21:08:09.659Z,22.05
2022-09-23T21:10:11.236Z,21.25
2022-09-23T21:12:12.797Z,15.75
2022-09-23T21:14:14.945Z,17.50
2022-09-23T21:16:18.170Z,18.35
2022-09-23T21:18:22.643Z,17.45
2022-09-23T21:20:24.372Z,19.50
2022-09-23T21:22:26.383Z,15.55
2022-09-23T21:26:50.653Z,10.25
2022-09-23T21:28:57.947Z,11.60
2022-09-23T21:31:04.189Z,10.02
2022-09-23T21:33:06.205Z,8.52
2022-09-23T21:35:09.446Z,21.88
2022-09-23T21:37:11.701Z,18.17
2022-09-23T21:39:13.491Z,7.15
2022-09-23T21:41:15.483Z,7.70
2022-09-23T21:43:17.161Z,7.82
2022-09-23T21:45:18.820Z,8.90
2022-09-23T21:47:20.511Z,10.75
2022-09-23T21:49:22.089Z,10.95
2022-09-23T21:51:26.328Z,13.00
2022-09-23T21:53:31.037Z,13.43
2022-09-23T21:55:32.723Z,16.60
2022-09-23T21:57:34.284Z,14.20
2022-09-23T21:59:35.836Z,15.55
2022-09-23T22:01:40.978Z,16.58
2022-09-23T22:03:46.275Z,16.88
2022-09-23T22:05:47.912Z,92.85
2022-09-23T22:07:49.457Z,49.60
2022-09-23T22:09:51.041Z,29.42
2022-09-23T22:12:09.981Z,39.50
2022-09-23T22:14:13.187Z,29.33
2022-09-23T22:16:16.759Z,39.47
2022-09-23T22:18:20.091Z,36.60
2022-09-23T22:20:21.969Z,28.75
2022-09-23T22:22:23.549Z,23.27
2022-09-23T22:24:25.089Z,21.02
2022-09-23T22:26:31.566Z,21.88
2022-09-23T22:28:51.762Z,22.77
2022-09-23T22:31:11.859Z,24.92
2022-09-23T22:33:15.851Z,29.00
2022-09-23T22:35:17.965Z,32.47
2022-09-23T22:37:24.949Z,28.33
2022-09-23T22:39:28.994Z,22.85
2022-09-23T22:41:31.500Z,22.90
2022-09-23T22:43:33.516Z,23.05
2022-09-23T22:45:35.085Z,21.52
2022-09-23T22:47:38.695Z,30.30
2022-09-23T22:49:41.031Z,23.08
2022-09-23T22:51:42.957Z,27.88
2022-09-23T22:53:44.542Z,30.77
2022-09-23T22:55:57.203Z,27.50
2022-09-23T22:58:06.805Z,27.45
2022-09-23T23:00:20.391Z,20.08
2022-09-23T23:02:24.881Z,20.88
2022-09-23T23:04:27.071Z,19.35
2022-09-23T23:06:34.957Z,18.98
2022-09-23T23:08:37.268Z,18.70
2022-09-23T23:10:38.813Z,17.38
2022-09-23T23:12:41.650Z,17.75
2022-09-23T23:14:43.269Z,19.15
2022-09-23T23:16:46.243Z,19.48
2022-09-23T23:18:47.888Z,21.00
2022-09-23T23:20:49.883Z,20.15
2022-09-23T23:22:51.570Z,21.60
2022-09-23T23:24:54.686Z,21.08
2022-09-23T23:26:56.619Z,22.60
2022-09-23T23:28:58.687Z,22.73
2022-09-23T23:31:08.055Z,23.42
2022-09-23T23:33:09.654Z,31.92
2022-09-23T23:35:11.219Z,29.30
2022-09-23T23:37:12.814Z,27.10
2022-09-23T23:39:14.526Z,30.10
2022-09-23T23:41:18.587Z,34.22
2022-09-23T23:43:20.234Z,26.95
2022-09-23T23:45:21.988Z,25.95
2022-09-23T23:47:24.182Z,24.83
2022-09-23T23:49:25.946Z,23.40
2022-09-23T23:51:27.686Z,28.48
2022-09-23T23:53:31.044Z,32.03
2022-09-23T23:55:32.611Z,29.60
2022-09-23T23:57:34.175Z,23.98
2022-09-23T23:59:36.044Z,23.17
